sensor_id;sensor_type;location;lat;lon;timestamp;temperature;humidity
53802;DHT22;39709;53.334;6.534;2022-09-09T00:00:53;14.70;99.90
53802;DHT22;39709;53.334;6.534;2022-09-09T00:03:26;14.70;99.90
53802;DHT22;39709;53.334;6.534;2022-09-09T00:06:03;14.50;99.90
53802;DHT22;39709;53.334;6.534;2022-09-09T00:12:15;14.20;99.90
53802;DHT22;39709;53.334;6.534;2022-09-09T00:14:56;14.60;99.90
53802;DHT22;39709;53.334;6.534;2022-09-09T00:17:52;14.20;99.90
53802;DHT22;39709;53.334;6.534;2022-09-09T00:23:17;14.40;99.90
53802;DHT22;39709;53.334;6.534;2022-09-09T00:31:32;14.20;99.90
53802;DHT22;39709;53.334;6.534;2022-09-09T00:34:05;14.30;99.90
53802;DHT22;39709;53.334;6.534;2022-09-09T00:36:35;13.90;99.90
53802;DHT22;39709;53.334;6.534;2022-09-09T00:39:03;14.30;99.90
53802;DHT22;39709;53.334;6.534;2022-09-09T00:49:30;13.80;99.90
53802;DHT22;39709;53.334;6.534;2022-09-09T00:57:34;14.20;99.90
53802;DHT22;39709;53.334;6.534;2022-09-09T01:02:43;13.70;99.90
53802;DHT22;39709;53.334;6.534;2022-09-09T01:08:01;14.00;99.90
53802;DHT22;39709;53.334;6.534;2022-09-09T01:10:49;13.80;99.90
53802;DHT22;39709;53.334;6.534;2022-09-09T01:13:27;13.80;99.90
53802;DHT22;39709;53.334;6.534;2022-09-09T01:15:57;14.10;99.90
53802;DHT22;39709;53.334;6.534;2022-09-09T01:18:37;13.70;99.90
53802;DHT22;39709;53.334;6.534;2022-09-09T01:21:41;13.70;99.90
53802;DHT22;39709;53.334;6.534;2022-09-09T01:24:22;13.80;99.90
53802;DHT22;39709;53.334;6.534;2022-09-09T01:26:51;13.70;99.90
53802;DHT22;39709;53.334;6.534;2022-09-09T01:29:18;14.10;99.90
53802;DHT22;39709;53.334;6.534;2022-09-09T01:32:00;13.50;99.90
53802;DHT22;39709;53.334;6.534;2022-09-09T01:34:31;13.60;99.90
53802;DHT22;39709;53.334;6.534;2022-09-09T01:37:00;14.00;99.90
53802;DHT22;39709;53.334;6.534;2022-09-09T01:39:27;13.70;99.90
53802;DHT22;39709;53.334;6.534;2022-09-09T01:41:54;13.80;99.90
53802;DHT22;39709;53.334;6.534;2022-09-09T01:44:21;13.80;99.90
53802;DHT22;39709;53.334;6.534;2022-09-09T01:46:47;13.80;99.90
53802;DHT22;39709;53.334;6.534;2022-09-09T01:49:13;13.50;99.90
53802;DHT22;39709;53.334;6.534;2022-09-09T01:51:41;13.80;99.90
53802;DHT22;39709;53.334;6.534;2022-09-09T01:54:08;13.90;99.90
53802;DHT22;39709;53.334;6.534;2022-09-09T02:02:11;13.50;99.90
53802;DHT22;39709;53.334;6.534;2022-09-09T02:04:48;13.80;99.90
53802;DHT22;39709;53.334;6.534;2022-09-09T02:10:09;13.80;99.90
53802;DHT22;39709;53.334;6.534;2022-09-09T02:12:40;13.40;99.90
53802;DHT22;39709;53.334;6.534;2022-09-09T02:15:24;13.50;99.90
53802;DHT22;39709;53.334;6.534;2022-09-09T02:17:52;13.40;99.90
53802;DHT22;39709;53.334;6.534;2022-09-09T02:20:20;13.60;99.90
53802;DHT22;39709;53.334;6.534;2022-09-09T02:22:50;13.50;99.90
53802;DHT22;39709;53.334;6.534;2022-09-09T02:25:19;13.70;99.90
53802;DHT22;39709;53.334;6.534;2022-09-09T02:27:46;13.80;99.90
53802;DHT22;39709;53.334;6.534;2022-09-09T02:30:13;13.40;99.90
53802;DHT22;39709;53.334;6.534;2022-09-09T02:32:42;13.50;99.90
53802;DHT22;39709;53.334;6.534;2022-09-09T02:35:19;13.80;99.90
53802;DHT22;39709;53.334;6.534;2022-09-09T02:37:46;13.50;99.90
53802;DHT22;39709;53.334;6.534;2022-09-09T02:40:13;13.90;99.90
53802;DHT22;39709;53.334;6.534;2022-09-09T02:42:45;13.60;99.90
53802;DHT22;39709;53.334;6.534;2022-09-09T02:45:14;14.00;99.90
53802;DHT22;39709;53.334;6.534;2022-09-09T02:50:27;13.60;99.90
53802;DHT22;39709;53.334;6.534;2022-09-09T02:58:11;13.80;99.90
53802;DHT22;39709;53.334;6.534;2022-09-09T03:00:39;14.10;99.90
53802;DHT22;39709;53.334;6.534;2022-09-09T03:03:06;13.70;99.90
53802;DHT22;39709;53.334;6.534;2022-09-09T03:05:32;13.80;99.90
53802;DHT22;39709;53.334;6.534;2022-09-09T03:07:58;14.00;99.90
53802;DHT22;39709;53.334;6.534;2022-09-09T03:10:24;14.10;99.90
53802;DHT22;39709;53.334;6.534;2022-09-09T03:12:49;14.10;99.90
53802;DHT22;39709;53.334;6.534;2022-09-09T03:15:16;14.10;99.90
53802;DHT22;39709;53.334;6.534;2022-09-09T03:17:42;13.70;99.90
53802;DHT22;39709;53.334;6.534;2022-09-09T03:20:08;14.20;99.90
53802;DHT22;39709;53.334;6.534;2022-09-09T03:22:34;13.80;99.90
53802;DHT22;39709;53.334;6.534;2022-09-09T03:25:00;13.70;99.90
53802;DHT22;39709;53.334;6.534;2022-09-09T03:27:28;13.70;99.90
53802;DHT22;39709;53.334;6.534;2022-09-09T03:29:54;13.70;99.90
53802;DHT22;39709;53.334;6.534;2022-09-09T03:32:20;13.60;99.90
53802;DHT22;39709;53.334;6.534;2022-09-09T03:34:48;14.10;99.90
53802;DHT22;39709;53.334;6.534;2022-09-09T03:37:16;13.80;99.90
53802;DHT22;39709;53.334;6.534;2022-09-09T03:39:43;14.00;99.90
53802;DHT22;39709;53.334;6.534;2022-09-09T03:42:09;13.60;99.90
53802;DHT22;39709;53.334;6.534;2022-09-09T03:44:35;14.00;99.90
53802;DHT22;39709;53.334;6.534;2022-09-09T03:47:01;13.90;99.90
53802;DHT22;39709;53.334;6.534;2022-09-09T03:49:27;13.70;99.90
53802;DHT22;39709;53.334;6.534;2022-09-09T03:51:56;13.90;99.90
53802;DHT22;39709;53.334;6.534;2022-09-09T03:54:24;13.80;99.90
53802;DHT22;39709;53.334;6.534;2022-09-09T03:56:50;14.10;99.90
53802;DHT22;39709;53.334;6.534;2022-09-09T03:59:15;13.60;99.90
53802;DHT22;39709;53.334;6.534;2022-09-09T04:01:41;14.10;99.90
53802;DHT22;39709;53.334;6.534;2022-09-09T04:04:07;14.00;99.90
53802;DHT22;39709;53.334;6.534;2022-09-09T04:06:33;13.70;99.90
53802;DHT22;39709;53.334;6.534;2022-09-09T04:08:59;13.70;99.90
53802;DHT22;39709;53.334;6.534;2022-09-09T04:11:27;13.90;99.90
53802;DHT22;39709;53.334;6.534;2022-09-09T04:13:53;14.00;99.90
53802;DHT22;39709;53.334;6.534;2022-09-09T04:16:19;14.10;99.90
53802;DHT22;39709;53.334;6.534;2022-09-09T04:18:45;13.80;99.90
53802;DHT22;39709;53.334;6.534;2022-09-09T04:21:11;14.10;99.90
53802;DHT22;39709;53.334;6.534;2022-09-09T04:23:38;14.10;99.90
53802;DHT22;39709;53.334;6.534;2022-09-09T04:26:04;13.60;99.90
53802;DHT22;39709;53.334;6.534;2022-09-09T04:28:33;14.00;99.90
53802;DHT22;39709;53.334;6.534;2022-09-09T04:31:14;13.80;99.90
53802;DHT22;39709;53.334;6.534;2022-09-09T04:33:40;13.80;99.90
53802;DHT22;39709;53.334;6.534;2022-09-09T04:36:06;13.90;99.90
53802;DHT22;39709;53.334;6.534;2022-09-09T04:38:32;14.10;99.90
53802;DHT22;39709;53.334;6.534;2022-09-09T04:40:58;14.30;99.90
53802;DHT22;39709;53.334;6.534;2022-09-09T04:43:24;13.80;99.90
53802;DHT22;39709;53.334;6.534;2022-09-09T04:45:51;14.00;99.90
53802;DHT22;39709;53.334;6.534;2022-09-09T04:48:18;14.20;99.90
53802;DHT22;39709;53.334;6.534;2022-09-09T04:50:44;14.10;99.90
53802;DHT22;39709;53.334;6.534;2022-09-09T04:53:09;14.20;99.90
53802;DHT22;39709;53.334;6.534;2022-09-09T04:55:35;14.10;99.90
53802;DHT22;39709;53.334;6.534;2022-09-09T04:58:05;14.50;99.90
53802;DHT22;39709;53.334;6.534;2022-09-09T05:00:31;14.40;99.90
53802;DHT22;39709;53.334;6.534;2022-09-09T05:02:56;14.20;99.90
53802;DHT22;39709;53.334;6.534;2022-09-09T05:05:22;14.20;99.90
53802;DHT22;39709;53.334;6.534;2022-09-09T05:07:48;14.00;99.90
53802;DHT22;39709;53.334;6.534;2022-09-09T05:10:14;14.40;99.90
53802;DHT22;39709;53.334;6.534;2022-09-09T05:12:42;14.50;99.90
53802;DHT22;39709;53.334;6.534;2022-09-09T05:15:08;14.50;99.90
53802;DHT22;39709;53.334;6.534;2022-09-09T05:17:34;14.30;99.90
53802;DHT22;39709;53.334;6.534;2022-09-09T05:20:00;14.10;99.90
53802;DHT22;39709;53.334;6.534;2022-09-09T05:22:28;14.40;99.90
53802;DHT22;39709;53.334;6.534;2022-09-09T05:24:54;14.60;99.90
53802;DHT22;39709;53.334;6.534;2022-09-09T05:27:19;14.60;99.90
53802;DHT22;39709;53.334;6.534;2022-09-09T05:29:46;14.70;99.90
53802;DHT22;39709;53.334;6.534;2022-09-09T05:32:11;14.40;99.90
53802;DHT22;39709;53.334;6.534;2022-09-09T05:34:39;14.20;99.90
53802;DHT22;39709;53.334;6.534;2022-09-09T05:37:05;14.30;99.90
53802;DHT22;39709;53.334;6.534;2022-09-09T05:39:32;14.40;99.90
53802;DHT22;39709;53.334;6.534;2022-09-09T05:41:58;14.80;99.90
53802;DHT22;39709;53.334;6.534;2022-09-09T05:44:23;14.30;99.90
53802;DHT22;39709;53.334;6.534;2022-09-09T05:46:52;14.40;99.90
53802;DHT22;39709;53.334;6.534;2022-09-09T05:49:20;14.40;99.90
53802;DHT22;39709;53.334;6.534;2022-09-09T05:51:46;14.70;99.90
53802;DHT22;39709;53.334;6.534;2022-09-09T05:54:12;14.70;99.90
53802;DHT22;39709;53.334;6.534;2022-09-09T05:56:40;14.40;99.90
53802;DHT22;39709;53.334;6.534;2022-09-09T05:59:06;14.60;99.90
53802;DHT22;39709;53.334;6.534;2022-09-09T06:01:34;14.70;99.90
53802;DHT22;39709;53.334;6.534;2022-09-09T06:04:01;14.50;99.90
53802;DHT22;39709;53.334;6.534;2022-09-09T06:06:31;14.50;99.90
53802;DHT22;39709;53.334;6.534;2022-09-09T06:09:02;14.40;99.90
53802;DHT22;39709;53.334;6.534;2022-09-09T06:11:30;14.40;99.90
53802;DHT22;39709;53.334;6.534;2022-09-09T06:13:57;14.20;99.90
53802;DHT22;39709;53.334;6.534;2022-09-09T06:16:25;14.60;99.90
53802;DHT22;39709;53.334;6.534;2022-09-09T06:18:55;14.60;99.90
53802;DHT22;39709;53.334;6.534;2022-09-09T06:23:48;14.70;99.90
53802;DHT22;39709;53.334;6.534;2022-09-09T06:26:24;14.70;99.90
53802;DHT22;39709;53.334;6.534;2022-09-09T06:28:52;14.70;99.90
53802;DHT22;39709;53.334;6.534;2022-09-09T06:31:23;14.60;99.90
53802;DHT22;39709;53.334;6.534;2022-09-09T06:33:50;14.90;99.90
53802;DHT22;39709;53.334;6.534;2022-09-09T06:36:20;14.90;99.90
53802;DHT22;39709;53.334;6.534;2022-09-09T06:38:46;14.70;99.90
53802;DHT22;39709;53.334;6.534;2022-09-09T06:41:14;14.60;99.90
53802;DHT22;39709;53.334;6.534;2022-09-09T06:43:40;15.10;99.90
53802;DHT22;39709;53.334;6.534;2022-09-09T06:48:36;15.00;99.90
53802;DHT22;39709;53.334;6.534;2022-09-09T06:51:12;15.00;99.90
53802;DHT22;39709;53.334;6.534;2022-09-09T06:53:40;14.80;99.90
53802;DHT22;39709;53.334;6.534;2022-09-09T06:56:25;14.90;99.90
53802;DHT22;39709;53.334;6.534;2022-09-09T06:58:54;15.20;99.90
53802;DHT22;39709;53.334;6.534;2022-09-09T07:01:22;15.10;99.90
53802;DHT22;39709;53.334;6.534;2022-09-09T07:03:50;14.90;99.90
53802;DHT22;39709;53.334;6.534;2022-09-09T07:08:51;15.30;99.90
53802;DHT22;39709;53.334;6.534;2022-09-09T07:11:18;15.10;99.90
53802;DHT22;39709;53.334;6.534;2022-09-09T07:13:44;15.00;99.90
53802;DHT22;39709;53.334;6.534;2022-09-09T07:16:12;15.50;99.90
53802;DHT22;39709;53.334;6.534;2022-09-09T07:18:39;15.30;99.90
53802;DHT22;39709;53.334;6.534;2022-09-09T07:21:05;15.20;99.90
53802;DHT22;39709;53.334;6.534;2022-09-09T07:23:32;15.60;99.90
53802;DHT22;39709;53.334;6.534;2022-09-09T07:25:58;15.40;99.90
53802;DHT22;39709;53.334;6.534;2022-09-09T07:28:25;15.60;99.90
53802;DHT22;39709;53.334;6.534;2022-09-09T07:31:00;15.90;99.90
53802;DHT22;39709;53.334;6.534;2022-09-09T07:33:29;16.00;99.90
53802;DHT22;39709;53.334;6.534;2022-09-09T07:36:21;15.70;99.90
53802;DHT22;39709;53.334;6.534;2022-09-09T07:38:50;16.10;99.90
53802;DHT22;39709;53.334;6.534;2022-09-09T07:41:32;16.00;99.90
53802;DHT22;39709;53.334;6.534;2022-09-09T07:44:03;16.00;99.90
53802;DHT22;39709;53.334;6.534;2022-09-09T07:46:29;16.10;99.90
53802;DHT22;39709;53.334;6.534;2022-09-09T07:48:56;16.10;99.90
53802;DHT22;39709;53.334;6.534;2022-09-09T07:51:30;15.90;99.90
53802;DHT22;39709;53.334;6.534;2022-09-09T07:53:58;16.20;98.00
53802;DHT22;39709;53.334;6.534;2022-09-09T07:56:25;16.10;99.00
53802;DHT22;39709;53.334;6.534;2022-09-09T07:58:53;16.20;98.80
53802;DHT22;39709;53.334;6.534;2022-09-09T08:01:25;16.20;96.10
53802;DHT22;39709;53.334;6.534;2022-09-09T08:04:00;16.20;86.90
53802;DHT22;39709;53.334;6.534;2022-09-09T08:06:28;16.00;92.50
53802;DHT22;39709;53.334;6.534;2022-09-09T08:08:54;16.10;80.80
53802;DHT22;39709;53.334;6.534;2022-09-09T08:11:21;16.20;84.10
53802;DHT22;39709;53.334;6.534;2022-09-09T08:13:49;16.50;91.10
53802;DHT22;39709;53.334;6.534;2022-09-09T08:16:27;16.50;75.20
53802;DHT22;39709;53.334;6.534;2022-09-09T08:18:53;16.40;75.60
53802;DHT22;39709;53.334;6.534;2022-09-09T08:21:24;16.30;81.30
53802;DHT22;39709;53.334;6.534;2022-09-09T08:23:51;16.70;77.50
53802;DHT22;39709;53.334;6.534;2022-09-09T08:26:25;16.40;67.90
53802;DHT22;39709;53.334;6.534;2022-09-09T08:28:53;16.60;68.70
53802;DHT22;39709;53.334;6.534;2022-09-09T08:31:21;16.80;65.70
53802;DHT22;39709;53.334;6.534;2022-09-09T08:33:48;16.70;40.40
53802;DHT22;39709;53.334;6.534;2022-09-09T08:36:18;16.80;60.70
53802;DHT22;39709;53.334;6.534;2022-09-09T08:38:48;16.90;60.70
53802;DHT22;39709;53.334;6.534;2022-09-09T08:44:11;17.10;30.80
53802;DHT22;39709;53.334;6.534;2022-09-09T08:49:18;17.10;35.50
53802;DHT22;39709;53.334;6.534;2022-09-09T08:51:48;17.00;32.40
53802;DHT22;39709;53.334;6.534;2022-09-09T08:54:15;17.20;19.80
53802;DHT22;39709;53.334;6.534;2022-09-09T08:56:41;17.30;6.50
53802;DHT22;39709;53.334;6.534;2022-09-09T08:59:10;17.20;13.50
53802;DHT22;39709;53.334;6.534;2022-09-09T09:05:02;17.30;15.90
53802;DHT22;39709;53.334;6.534;2022-09-09T09:07:44;17.50;11.50
53802;DHT22;39709;53.334;6.534;2022-09-09T09:12:56;17.70;1.00
53802;DHT22;39709;53.334;6.534;2022-09-09T09:15:42;17.70;1.00
53802;DHT22;39709;53.334;6.534;2022-09-09T09:18:11;17.90;1.00
53802;DHT22;39709;53.334;6.534;2022-09-09T09:20:50;18.00;1.00
53802;DHT22;39709;53.334;6.534;2022-09-09T09:23:23;18.10;1.00
53802;DHT22;39709;53.334;6.534;2022-09-09T09:25:52;18.30;1.00
53802;DHT22;39709;53.334;6.534;2022-09-09T09:28:24;18.40;1.00
53802;DHT22;39709;53.334;6.534;2022-09-09T09:31:06;18.50;1.00
53802;DHT22;39709;53.334;6.534;2022-09-09T09:33:40;18.50;1.00
53802;DHT22;39709;53.334;6.534;2022-09-09T09:36:08;18.40;1.00
53802;DHT22;39709;53.334;6.534;2022-09-09T09:38:35;18.50;1.00
53802;DHT22;39709;53.334;6.534;2022-09-09T09:41:01;18.60;1.00
53802;DHT22;39709;53.334;6.534;2022-09-09T09:43:32;18.40;1.00
53802;DHT22;39709;53.334;6.534;2022-09-09T09:45:59;18.60;1.00
53802;DHT22;39709;53.334;6.534;2022-09-09T09:48:26;18.50;1.00
53802;DHT22;39709;53.334;6.534;2022-09-09T09:50:54;18.50;1.00
53802;DHT22;39709;53.334;6.534;2022-09-09T09:53:24;18.60;1.00
53802;DHT22;39709;53.334;6.534;2022-09-09T09:56:02;18.50;1.00
53802;DHT22;39709;53.334;6.534;2022-09-09T09:58:31;18.60;1.00
53802;DHT22;39709;53.334;6.534;2022-09-09T10:00:59;18.50;1.00
53802;DHT22;39709;53.334;6.534;2022-09-09T10:03:31;18.40;1.00
53802;DHT22;39709;53.334;6.534;2022-09-09T10:05:57;18.40;1.00
53802;DHT22;39709;53.334;6.534;2022-09-09T10:08:27;18.50;1.00
53802;DHT22;39709;53.334;6.534;2022-09-09T10:11:22;18.50;1.00
53802;DHT22;39709;53.334;6.534;2022-09-09T10:19:41;18.90;1.00
53802;DHT22;39709;53.334;6.534;2022-09-09T10:22:25;19.00;1.00
53802;DHT22;39709;53.334;6.534;2022-09-09T10:25:04;19.10;1.00
53802;DHT22;39709;53.334;6.534;2022-09-09T10:30:46;19.40;1.00
53802;DHT22;39709;53.334;6.534;2022-09-09T10:36:07;19.20;1.00
53802;DHT22;39709;53.334;6.534;2022-09-09T10:42:04;19.30;1.00
53802;DHT22;39709;53.334;6.534;2022-09-09T10:56:03;19.60;1.00
53802;DHT22;39709;53.334;6.534;2022-09-09T10:58:52;19.60;1.00
53802;DHT22;39709;53.334;6.534;2022-09-09T11:01:41;19.70;1.00
53802;DHT22;39709;53.334;6.534;2022-09-09T11:04:22;19.80;1.00
53802;DHT22;39709;53.334;6.534;2022-09-09T11:06:54;19.90;1.00
53802;DHT22;39709;53.334;6.534;2022-09-09T11:09:26;20.00;1.00
53802;DHT22;39709;53.334;6.534;2022-09-09T11:11:55;19.90;1.00
53802;DHT22;39709;53.334;6.534;2022-09-09T11:14:28;19.90;1.00
53802;DHT22;39709;53.334;6.534;2022-09-09T11:17:05;20.00;1.00
53802;DHT22;39709;53.334;6.534;2022-09-09T11:19:38;20.10;1.00
53802;DHT22;39709;53.334;6.534;2022-09-09T11:24:40;20.10;1.00
53802;DHT22;39709;53.334;6.534;2022-09-09T11:27:37;20.10;1.00
53802;DHT22;39709;53.334;6.534;2022-09-09T11:30:46;20.10;1.00
53802;DHT22;39709;53.334;6.534;2022-09-09T11:38:47;20.40;1.00
53802;DHT22;39709;53.334;6.534;2022-09-09T11:41:17;20.30;1.00
53802;DHT22;39709;53.334;6.534;2022-09-09T11:46:14;20.30;1.00
53802;DHT22;39709;53.334;6.534;2022-09-09T11:48:43;20.30;1.00
53802;DHT22;39709;53.334;6.534;2022-09-09T11:51:27;20.40;1.00
53802;DHT22;39709;53.334;6.534;2022-09-09T11:54:02;20.50;1.00
53802;DHT22;39709;53.334;6.534;2022-09-09T11:56:53;20.60;1.00
53802;DHT22;39709;53.334;6.534;2022-09-09T11:59:30;20.50;1.00
53802;DHT22;39709;53.334;6.534;2022-09-09T12:02:12;20.50;1.00
53802;DHT22;39709;53.334;6.534;2022-09-09T12:04:50;20.50;1.00
53802;DHT22;39709;53.334;6.534;2022-09-09T12:07:39;20.60;1.00
53802;DHT22;39709;53.334;6.534;2022-09-09T12:12:38;20.80;1.00
53802;DHT22;39709;53.334;6.534;2022-09-09T12:17:42;20.80;1.00
53802;DHT22;39709;53.334;6.534;2022-09-09T12:28:49;21.20;1.00
53802;DHT22;39709;53.334;6.534;2022-09-09T12:33:43;21.10;1.00
53802;DHT22;39709;53.334;6.534;2022-09-09T12:36:17;21.10;1.00
53802;DHT22;39709;53.334;6.534;2022-09-09T12:38:44;21.00;1.00
53802;DHT22;39709;53.334;6.534;2022-09-09T12:41:25;21.00;1.00
53802;DHT22;39709;53.334;6.534;2022-09-09T12:44:02;21.00;1.00
53802;DHT22;39709;53.334;6.534;2022-09-09T12:46:35;21.10;1.00
53802;DHT22;39709;53.334;6.534;2022-09-09T12:49:03;21.20;1.00
53802;DHT22;39709;53.334;6.534;2022-09-09T12:51:31;21.20;1.00
53802;DHT22;39709;53.334;6.534;2022-09-09T12:53:58;21.10;1.00
53802;DHT22;39709;53.334;6.534;2022-09-09T12:56:30;21.20;1.00
53802;DHT22;39709;53.334;6.534;2022-09-09T12:58:57;21.20;1.00
53802;DHT22;39709;53.334;6.534;2022-09-09T13:01:27;21.10;1.00
53802;DHT22;39709;53.334;6.534;2022-09-09T13:03:54;20.90;1.00
53802;DHT22;39709;53.334;6.534;2022-09-09T13:06:26;20.90;1.00
53802;DHT22;39709;53.334;6.534;2022-09-09T13:08:53;20.90;1.00
53802;DHT22;39709;53.334;6.534;2022-09-09T13:11:26;21.00;1.00
53802;DHT22;39709;53.334;6.534;2022-09-09T13:13:56;21.00;1.00
53802;DHT22;39709;53.334;6.534;2022-09-09T13:16:27;21.10;1.00
53802;DHT22;39709;53.334;6.534;2022-09-09T13:18:59;21.10;1.00
53802;DHT22;39709;53.334;6.534;2022-09-09T13:21:39;21.10;1.00
53802;DHT22;39709;53.334;6.534;2022-09-09T13:24:07;21.10;1.00
53802;DHT22;39709;53.334;6.534;2022-09-09T13:26:54;21.30;1.00
53802;DHT22;39709;53.334;6.534;2022-09-09T13:29:22;21.30;1.00
53802;DHT22;39709;53.334;6.534;2022-09-09T13:31:48;21.20;1.00
53802;DHT22;39709;53.334;6.534;2022-09-09T13:34:29;21.30;1.00
53802;DHT22;39709;53.334;6.534;2022-09-09T13:37:03;21.40;1.00
53802;DHT22;39709;53.334;6.534;2022-09-09T13:39:33;21.50;1.00
53802;DHT22;39709;53.334;6.534;2022-09-09T13:42:00;21.40;1.00
53802;DHT22;39709;53.334;6.534;2022-09-09T13:44:37;21.50;1.00
53802;DHT22;39709;53.334;6.534;2022-09-09T13:47:18;21.40;1.00
53802;DHT22;39709;53.334;6.534;2022-09-09T13:49:45;21.50;1.00
53802;DHT22;39709;53.334;6.534;2022-09-09T13:52:16;21.30;1.00
53802;DHT22;39709;53.334;6.534;2022-09-09T13:54:50;21.30;1.00
53802;DHT22;39709;53.334;6.534;2022-09-09T13:57:18;21.20;1.00
53802;DHT22;39709;53.334;6.534;2022-09-09T13:59:45;21.00;1.00
53802;DHT22;39709;53.334;6.534;2022-09-09T14:02:11;21.10;1.00
53802;DHT22;39709;53.334;6.534;2022-09-09T14:04:37;21.10;1.00
53802;DHT22;39709;53.334;6.534;2022-09-09T14:07:03;21.10;1.00
53802;DHT22;39709;53.334;6.534;2022-09-09T14:09:29;21.00;1.00
53802;DHT22;39709;53.334;6.534;2022-09-09T14:11:54;20.90;1.00
53802;DHT22;39709;53.334;6.534;2022-09-09T14:14:23;20.90;1.00
53802;DHT22;39709;53.334;6.534;2022-09-09T14:16:48;20.70;1.00
53802;DHT22;39709;53.334;6.534;2022-09-09T14:19:14;20.70;1.00
53802;DHT22;39709;53.334;6.534;2022-09-09T14:21:40;20.50;1.00
53802;DHT22;39709;53.334;6.534;2022-09-09T14:24:05;20.50;1.00
53802;DHT22;39709;53.334;6.534;2022-09-09T14:26:31;20.20;1.00
53802;DHT22;39709;53.334;6.534;2022-09-09T14:28:57;20.20;1.00
53802;DHT22;39709;53.334;6.534;2022-09-09T14:31:24;20.10;1.00
53802;DHT22;39709;53.334;6.534;2022-09-09T14:33:50;20.30;1.00
53802;DHT22;39709;53.334;6.534;2022-09-09T14:36:16;20.60;1.00
53802;DHT22;39709;53.334;6.534;2022-09-09T14:38:42;20.70;1.00
53802;DHT22;39709;53.334;6.534;2022-09-09T14:41:12;20.60;1.00
53802;DHT22;39709;53.334;6.534;2022-09-09T14:43:39;20.60;1.00
53802;DHT22;39709;53.334;6.534;2022-09-09T14:46:09;20.60;1.00
53802;DHT22;39709;53.334;6.534;2022-09-09T14:48:35;20.50;1.00
53802;DHT22;39709;53.334;6.534;2022-09-09T14:51:23;20.40;1.00
53802;DHT22;39709;53.334;6.534;2022-09-09T14:53:53;20.20;1.00
53802;DHT22;39709;53.334;6.534;2022-09-09T14:56:21;20.00;1.00
53802;DHT22;39709;53.334;6.534;2022-09-09T14:58:48;20.00;1.00
53802;DHT22;39709;53.334;6.534;2022-09-09T15:01:17;19.90;1.00
53802;DHT22;39709;53.334;6.534;2022-09-09T15:03:51;19.80;1.00
53802;DHT22;39709;53.334;6.534;2022-09-09T15:06:18;19.80;1.00
53802;DHT22;39709;53.334;6.534;2022-09-09T15:08:45;19.60;1.00
53802;DHT22;39709;53.334;6.534;2022-09-09T15:11:12;19.30;1.00
53802;DHT22;39709;53.334;6.534;2022-09-09T15:13:39;19.40;1.00
53802;DHT22;39709;53.334;6.534;2022-09-09T15:16:14;19.40;1.00
53802;DHT22;39709;53.334;6.534;2022-09-09T15:18:41;19.50;1.00
53802;DHT22;39709;53.334;6.534;2022-09-09T15:21:16;19.60;1.00
53802;DHT22;39709;53.334;6.534;2022-09-09T15:23:42;19.50;1.00
53802;DHT22;39709;53.334;6.534;2022-09-09T15:26:08;19.60;1.00
53802;DHT22;39709;53.334;6.534;2022-09-09T15:28:36;19.70;1.00
53802;DHT22;39709;53.334;6.534;2022-09-09T15:31:09;19.60;1.00
53802;DHT22;39709;53.334;6.534;2022-09-09T15:33:35;19.70;1.00
53802;DHT22;39709;53.334;6.534;2022-09-09T15:36:17;19.80;1.00
53802;DHT22;39709;53.334;6.534;2022-09-09T15:38:45;19.70;1.00
53802;DHT22;39709;53.334;6.534;2022-09-09T15:41:11;19.90;1.00
53802;DHT22;39709;53.334;6.534;2022-09-09T15:43:37;20.30;1.00
53802;DHT22;39709;53.334;6.534;2022-09-09T15:46:32;20.40;1.00
53802;DHT22;39709;53.334;6.534;2022-09-09T15:49:19;20.70;1.00
53802;DHT22;39709;53.334;6.534;2022-09-09T15:51:54;20.90;1.00
53802;DHT22;39709;53.334;6.534;2022-09-09T15:54:21;20.80;1.00
53802;DHT22;39709;53.334;6.534;2022-09-09T15:56:53;20.60;1.00
53802;DHT22;39709;53.334;6.534;2022-09-09T15:59:24;20.60;1.00
53802;DHT22;39709;53.334;6.534;2022-09-09T16:01:50;20.40;1.00
53802;DHT22;39709;53.334;6.534;2022-09-09T16:04:20;20.40;1.00
53802;DHT22;39709;53.334;6.534;2022-09-09T16:06:56;20.40;1.00
53802;DHT22;39709;53.334;6.534;2022-09-09T16:09:24;20.30;1.00
53802;DHT22;39709;53.334;6.534;2022-09-09T16:11:50;20.30;1.00
53802;DHT22;39709;53.334;6.534;2022-09-09T16:14:18;20.20;1.00
53802;DHT22;39709;53.334;6.534;2022-09-09T16:16:44;20.20;1.00
53802;DHT22;39709;53.334;6.534;2022-09-09T16:19:11;20.10;1.00
53802;DHT22;39709;53.334;6.534;2022-09-09T16:21:43;20.20;1.00
53802;DHT22;39709;53.334;6.534;2022-09-09T16:24:12;20.30;1.00
53802;DHT22;39709;53.334;6.534;2022-09-09T16:26:40;20.20;1.00
53802;DHT22;39709;53.334;6.534;2022-09-09T16:29:08;20.20;1.00
53802;DHT22;39709;53.334;6.534;2022-09-09T16:31:34;20.30;1.00
53802;DHT22;39709;53.334;6.534;2022-09-09T16:34:00;20.20;1.00
53802;DHT22;39709;53.334;6.534;2022-09-09T16:36:30;20.00;1.00
53802;DHT22;39709;53.334;6.534;2022-09-09T16:38:58;19.80;1.00
53802;DHT22;39709;53.334;6.534;2022-09-09T16:41:26;19.80;1.00
53802;DHT22;39709;53.334;6.534;2022-09-09T16:43:58;19.70;1.00
53802;DHT22;39709;53.334;6.534;2022-09-09T16:46:25;19.60;1.00
53802;DHT22;39709;53.334;6.534;2022-09-09T16:48:52;19.70;1.00
53802;DHT22;39709;53.334;6.534;2022-09-09T16:51:20;19.60;1.00
53802;DHT22;39709;53.334;6.534;2022-09-09T16:53:47;19.40;1.00
53802;DHT22;39709;53.334;6.534;2022-09-09T16:56:15;19.30;1.00
53802;DHT22;39709;53.334;6.534;2022-09-09T16:58:42;19.20;1.00
53802;DHT22;39709;53.334;6.534;2022-09-09T17:01:09;19.20;1.00
53802;DHT22;39709;53.334;6.534;2022-09-09T17:03:35;19.10;1.00
53802;DHT22;39709;53.334;6.534;2022-09-09T17:06:02;19.10;1.00
53802;DHT22;39709;53.334;6.534;2022-09-09T17:08:29;19.20;1.00
53802;DHT22;39709;53.334;6.534;2022-09-09T17:10:56;19.10;1.00
53802;DHT22;39709;53.334;6.534;2022-09-09T17:13:22;19.00;1.00
53802;DHT22;39709;53.334;6.534;2022-09-09T17:15:47;18.90;1.00
53802;DHT22;39709;53.334;6.534;2022-09-09T17:18:13;18.90;1.00
53802;DHT22;39709;53.334;6.534;2022-09-09T17:20:40;18.90;1.00
53802;DHT22;39709;53.334;6.534;2022-09-09T17:23:07;18.80;1.00
53802;DHT22;39709;53.334;6.534;2022-09-09T17:25:33;19.10;1.00
53802;DHT22;39709;53.334;6.534;2022-09-09T17:27:59;18.70;1.00
53802;DHT22;39709;53.334;6.534;2022-09-09T17:30:26;18.70;1.00
53802;DHT22;39709;53.334;6.534;2022-09-09T17:32:53;18.50;22.50
53802;DHT22;39709;53.334;6.534;2022-09-09T17:35:19;18.20;23.70
53802;DHT22;39709;53.334;6.534;2022-09-09T17:37:45;18.20;25.00
53802;DHT22;39709;53.334;6.534;2022-09-09T17:40:10;18.10;27.10
53802;DHT22;39709;53.334;6.534;2022-09-09T17:42:36;18.20;38.90
53802;DHT22;39709;53.334;6.534;2022-09-09T17:45:03;18.20;27.00
53802;DHT22;39709;53.334;6.534;2022-09-09T17:47:28;18.30;22.60
53802;DHT22;39709;53.334;6.534;2022-09-09T17:49:56;18.30;22.00
53802;DHT22;39709;53.334;6.534;2022-09-09T17:52:22;18.00;28.50
53802;DHT22;39709;53.334;6.534;2022-09-09T17:54:48;18.10;40.10